createdAt,value
2019-04-22T00:02:50.538Z,59.50
2019-04-22T00:05:26.251Z,59.80
2019-04-22T00:08:08.592Z,60.40
2019-04-22T00:10:43.756Z,61.10
2019-04-22T00:13:11.297Z,61.80
2019-04-22T00:15:27.770Z,62.20
2019-04-22T00:20:32.175Z,61.80
2019-04-22T00:22:57.791Z,60.10
2019-04-22T00:25:32.930Z,56.30
2019-04-22T00:27:57.484Z,53.90
2019-04-22T00:30:34.323Z,50.00
2019-04-22T00:33:07.895Z,50.20
2019-04-22T00:35:35.372Z,51.00
2019-04-22T00:40:33.930Z,49.50
2019-04-22T00:42:58.557Z,48.70
2019-04-22T00:45:37.472Z,51.90
2019-04-22T00:48:00.903Z,51.20
2019-04-22T00:50:34.350Z,50.50
2019-04-22T00:53:04.482Z,48.80
2019-04-22T00:55:31.420Z,48.80
2019-04-22T00:58:05.506Z,48.60
2019-04-22T01:00:31.304Z,49.10
2019-04-22T01:03:03.063Z,49.70
2019-04-22T01:05:34.193Z,50.80
2019-04-22T01:08:04.225Z,50.30
2019-04-22T01:10:32.422Z,49.80
2019-04-22T01:12:56.993Z,49.60
2019-04-22T01:15:34.329Z,49.60
2019-04-22T01:17:57.891Z,49.60
2019-04-22T01:20:54.593Z,49.40
2019-04-22T01:23:00.652Z,49.90
2019-04-22T01:25:24.853Z,49.50
2019-04-22T01:27:50.174Z,49.60
2019-04-22T01:30:10.941Z,50.20
2019-04-22T01:32:35.039Z,49.80
2019-04-22T01:35:12.968Z,50.10
2019-04-22T01:37:45.725Z,50.90
2019-04-22T01:43:00.424Z,50.60
2019-04-22T01:45:22.574Z,51.30
2019-04-22T01:47:46.682Z,50.90
2019-04-22T01:50:12.133Z,51.30
2019-04-22T01:52:47.298Z,51.30
2019-04-22T01:57:35.258Z,52.00
2019-04-22T01:59:59.166Z,50.20
2019-04-22T02:02:35.369Z,50.00
2019-04-22T02:05:04.885Z,50.10
2019-04-22T02:07:29.405Z,50.40
2019-04-22T02:09:56.132Z,49.70
2019-04-22T02:12:26.894Z,49.60
2019-04-22T02:14:52.205Z,50.20
2019-04-22T02:17:26.569Z,50.90
2019-04-22T02:22:38.618Z,53.20
2019-04-22T02:29:47.278Z,54.20
2019-04-22T02:32:28.040Z,54.00
2019-04-22T02:34:56.896Z,54.30
2019-04-22T02:37:21.226Z,53.40
2019-04-22T02:39:41.152Z,53.90
2019-04-22T02:42:10.679Z,54.80
2019-04-22T02:44:35.871Z,54.40
2019-04-22T02:47:18.539Z,52.30
2019-04-22T02:49:39.849Z,53.70
2019-04-22T02:52:01.363Z,54.80
2019-04-22T02:54:44.660Z,56.40
2019-04-22T02:57:04.670Z,52.60
2019-04-22T03:02:12.215Z,52.50
2019-04-22T03:04:22.469Z,52.90
2019-04-22T03:11:56.622Z,52.80
2019-04-22T03:14:19.069Z,52.90
2019-04-22T03:24:25.775Z,52.40
2019-04-22T03:26:45.378Z,52.70
2019-04-22T03:29:04.179Z,52.60
2019-04-22T03:35:09.861Z,54.70
2019-04-22T03:37:17.649Z,55.90
2019-04-22T03:42:06.767Z,54.40
2019-04-22T03:49:29.045Z,53.70
2019-04-22T03:52:00.329Z,53.60
2019-04-22T03:54:29.615Z,53.10
2019-04-22T03:57:18.134Z,52.70
2019-04-22T04:04:24.213Z,51.80
2019-04-22T04:06:54.172Z,51.80
2019-04-22T04:09:09.398Z,51.70
2019-04-22T04:11:43.209Z,51.60
2019-04-22T04:16:30.340Z,51.50
2019-04-22T04:19:30.787Z,51.70
2019-04-22T04:24:24.120Z,53.10
2019-04-22T04:26:42.543Z,53.00
2019-04-22T04:29:02.830Z,52.40
2019-04-22T04:31:24.528Z,51.70
2019-04-22T04:33:51.826Z,52.10
2019-04-22T04:36:11.581Z,52.00
2019-04-22T04:41:22.570Z,52.60
2019-04-22T04:43:50.328Z,52.20
2019-04-22T04:48:44.680Z,52.40
2019-04-22T04:53:24.775Z,51.80
2019-04-22T04:56:02.495Z,52.00
2019-04-22T04:58:34.954Z,52.20
2019-04-22T05:01:20.488Z,52.40
2019-04-22T05:03:32.839Z,53.60
2019-04-22T05:05:47.723Z,53.20
2019-04-22T05:08:29.605Z,53.10
2019-04-22T05:13:10.479Z,53.70
2019-04-22T05:18:13.982Z,52.70
2019-04-22T05:20:55.155Z,51.50
2019-04-22T05:23:08.784Z,51.60
2019-04-22T05:25:55.509Z,51.50
2019-04-22T05:27:57.883Z,51.50
2019-04-22T05:30:37.512Z,51.50
2019-04-22T05:33:02.883Z,52.40
2019-04-22T05:35:35.666Z,51.50
2019-04-22T05:38:13.357Z,51.70
2019-04-22T05:40:28.250Z,51.60
2019-04-22T05:43:00.159Z,51.20
2019-04-22T05:45:43.312Z,50.30
2019-04-22T05:48:01.321Z,50.60
2019-04-22T05:50:47.225Z,50.30
2019-04-22T05:53:21.257Z,50.40
2019-04-22T05:55:53.852Z,50.70
2019-04-22T05:58:15.323Z,50.70
2019-04-22T06:03:32.155Z,50.60
2019-04-22T06:05:55.333Z,50.00
2019-04-22T06:08:24.237Z,49.30
2019-04-22T06:10:58.127Z,49.20
2019-04-22T06:13:23.620Z,48.40
2019-04-22T06:16:18.297Z,47.90
2019-04-22T06:18:58.354Z,47.60
2019-04-22T06:21:27.827Z,47.60
2019-04-22T06:23:58.856Z,47.70
2019-04-22T06:26:46.281Z,47.40
2019-04-22T06:33:53.208Z,46.70
2019-04-22T06:36:15.755Z,46.40
2019-04-22T06:38:46.670Z,44.10
2019-04-22T06:41:17.178Z,41.30
2019-04-22T06:43:41.926Z,38.50
2019-04-22T06:46:08.446Z,35.10
2019-04-22T06:48:34.471Z,32.40
2019-04-22T06:51:04.700Z,31.30
2019-04-22T06:53:36.037Z,29.40
2019-04-22T06:56:00.460Z,28.50
2019-04-22T06:58:28.949Z,27.10
2019-04-22T07:01:18.102Z,27.90
2019-04-22T07:05:54.675Z,27.80
2019-04-22T07:09:04.076Z,26.20
2019-04-22T07:10:51.887Z,26.90
2019-04-22T07:13:23.415Z,27.70
2019-04-22T07:15:50.339Z,27.80
2019-04-22T07:18:18.518Z,28.00
2019-04-22T07:20:44.172Z,27.90
2019-04-22T07:23:13.784Z,28.50
2019-04-22T07:25:40.673Z,29.40
2019-04-22T07:28:13.822Z,29.80
2019-04-22T07:30:41.288Z,30.70
2019-04-22T07:35:42.181Z,30.00
2019-04-22T07:38:11.118Z,28.30
2019-04-22T07:40:41.989Z,27.20
2019-04-22T07:43:09.437Z,26.70
2019-04-22T07:45:35.874Z,26.20
2019-04-22T07:48:03.065Z,25.80
2019-04-22T07:50:44.474Z,24.90
2019-04-22T07:52:51.824Z,25.50
2019-04-22T07:55:25.806Z,24.50
2019-04-22T07:57:51.881Z,23.70
2019-04-22T08:00:28.101Z,22.70
2019-04-22T08:02:51.563Z,24.20
2019-04-22T08:05:26.085Z,23.40
2019-04-22T08:08:10.922Z,21.90
2019-04-22T08:10:23.821Z,23.00
2019-04-22T08:12:47.293Z,22.10
2019-04-22T08:15:12.580Z,20.30
2019-04-22T08:20:10.366Z,18.50
2019-04-22T08:22:39.996Z,18.70
2019-04-22T08:25:01.917Z,19.10
2019-04-22T08:27:31.958Z,18.20
2019-04-22T08:32:28.485Z,17.70
2019-04-22T08:34:56.176Z,17.40
2019-04-22T08:39:49.945Z,17.20
2019-04-22T08:42:27.095Z,17.30
2019-04-22T08:47:21.788Z,17.40
2019-04-22T08:49:50.906Z,17.60
2019-04-22T08:52:16.244Z,17.20
2019-04-22T08:54:43.703Z,17.90
2019-04-22T08:57:10.650Z,18.70
2019-04-22T08:59:36.934Z,18.90
2019-04-22T09:02:16.305Z,19.40
2019-04-22T09:04:31.332Z,19.00
2019-04-22T09:07:17.637Z,18.00
2019-04-22T09:09:31.460Z,18.30
2019-04-22T09:12:01.290Z,17.80
2019-04-22T09:14:32.436Z,16.80
2019-04-22T09:16:54.761Z,16.90
2019-04-22T09:19:24.192Z,17.30
2019-04-22T09:21:54.503Z,17.00
2019-04-22T09:24:35.613Z,16.50
2019-04-22T09:26:47.573Z,16.00
2019-04-22T09:29:20.951Z,16.30
2019-04-22T09:31:44.465Z,15.40
2019-04-22T09:34:18.517Z,15.60
2019-04-22T09:36:46.460Z,16.00
2019-04-22T09:39:09.518Z,15.00
2019-04-22T09:41:40.112Z,16.20
2019-04-22T09:44:02.389Z,16.80
2019-04-22T09:46:39.261Z,16.20
2019-04-22T09:49:06.749Z,16.10
2019-04-22T09:51:32.184Z,16.00
2019-04-22T09:54:00.763Z,16.10
2019-04-22T10:01:38.587Z,15.90
2019-04-22T10:03:56.537Z,15.30
2019-04-22T10:09:02.028Z,15.30
2019-04-22T10:11:23.995Z,15.10
2019-04-22T10:13:47.509Z,14.90
2019-04-22T10:16:20.616Z,15.40
2019-04-22T10:18:46.347Z,15.30
2019-04-22T10:21:08.432Z,15.30
2019-04-22T10:23:42.359Z,15.20
2019-04-22T10:26:04.835Z,14.40
2019-04-22T10:28:38.457Z,14.60
2019-04-22T10:30:59.925Z,14.30
2019-04-22T10:33:25.800Z,14.20
2019-04-22T10:35:34.566Z,14.50
2019-04-22T10:38:01.237Z,15.00
2019-04-22T10:40:30.071Z,14.30
2019-04-22T10:42:56.879Z,14.40
2019-04-22T10:45:24.027Z,14.30
2019-04-22T10:47:52.134Z,14.40
2019-04-22T10:50:21.029Z,14.80
2019-04-22T10:52:47.740Z,15.20
2019-04-22T10:55:14.565Z,15.50
2019-04-22T10:57:41.050Z,14.90
2019-04-22T11:00:09.252Z,15.60
2019-04-22T11:02:39.359Z,17.00
2019-04-22T11:05:08.188Z,16.40
2019-04-22T11:07:42.324Z,16.40
2019-04-22T11:10:20.489Z,15.70
2019-04-22T11:12:37.647Z,16.00
2019-04-22T11:15:07.713Z,15.40
2019-04-22T11:17:35.563Z,14.70
2019-04-22T11:20:05.827Z,15.70
2019-04-22T11:22:36.852Z,15.70
2019-04-22T11:25:01.857Z,15.80
2019-04-22T11:27:30.865Z,14.30
2019-04-22T11:29:59.649Z,14.60
2019-04-22T11:32:26.633Z,14.80
2019-04-22T11:34:59.165Z,14.20
2019-04-22T11:37:34.638Z,13.60
2019-04-22T11:40:11.417Z,14.00
2019-04-22T11:42:30.093Z,13.90
2019-04-22T11:44:57.133Z,14.20
2019-04-22T11:47:23.693Z,14.90
2019-04-22T11:49:50.050Z,14.70
2019-04-22T11:52:19.089Z,14.40
2019-04-22T11:54:46.721Z,14.60
2019-04-22T11:57:14.940Z,15.60
2019-04-22T11:59:42.745Z,15.40
2019-04-22T12:02:11.972Z,14.10
2019-04-22T12:04:40.154Z,14.70
2019-04-22T12:07:06.899Z,13.90
2019-04-22T12:09:33.506Z,13.80
2019-04-22T12:12:00.365Z,14.10
2019-04-22T12:14:27.744Z,14.70
2019-04-22T12:16:57.316Z,14.60
2019-04-22T12:19:26.844Z,14.00
2019-04-22T12:21:53.406Z,13.90
2019-04-22T12:24:19.633Z,14.80
2019-04-22T12:26:46.531Z,14.00
2019-04-22T12:29:13.261Z,13.60
2019-04-22T12:31:41.899Z,14.20
2019-04-22T12:34:08.733Z,13.90
2019-04-22T12:36:36.261Z,13.30
2019-04-22T12:39:07.702Z,13.50
2019-04-22T12:41:35.687Z,14.10
2019-04-22T12:44:03.361Z,14.20
2019-04-22T12:46:32.174Z,14.50
2019-04-22T12:49:00.262Z,13.40
2019-04-22T12:51:27.300Z,13.40
2019-04-22T12:53:55.196Z,13.80
2019-04-22T12:56:28.006Z,13.60
2019-04-22T12:58:55.787Z,12.60
2019-04-22T13:01:22.421Z,12.50
2019-04-22T13:03:50.214Z,13.10
2019-04-22T13:06:17.529Z,13.90
2019-04-22T13:08:45.714Z,13.80
2019-04-22T13:11:17.554Z,12.60
2019-04-22T13:13:40.935Z,13.30
2019-04-22T13:16:08.979Z,13.50
2019-04-22T13:18:42.136Z,13.60
2019-04-22T13:21:06.458Z,13.90
2019-04-22T13:23:33.891Z,14.50
2019-04-22T13:26:03.042Z,14.30
2019-04-22T13:28:31.363Z,14.30
2019-04-22T13:31:01.422Z,15.30
2019-04-22T13:33:28.708Z,16.10
2019-04-22T13:35:55.672Z,16.40
2019-04-22T13:38:22.754Z,16.50
2019-04-22T13:41:00.686Z,16.20
2019-04-22T13:43:18.968Z,16.60
2019-04-22T13:45:45.699Z,17.80
2019-04-22T13:48:33.605Z,17.70
2019-04-22T13:51:17.871Z,17.90
2019-04-22T13:53:47.444Z,17.30
2019-04-22T13:56:00.661Z,18.20
2019-04-22T13:58:18.482Z,17.70
2019-04-22T14:00:36.556Z,17.40
2019-04-22T14:03:08.926Z,17.20
2019-04-22T14:05:37.184Z,16.90
2019-04-22T14:08:04.932Z,18.00
2019-04-22T14:10:32.117Z,17.90
2019-04-22T14:13:00.216Z,17.80
2019-04-22T14:15:27.777Z,17.60
2019-04-22T14:17:56.803Z,17.60
2019-04-22T14:20:27.760Z,17.10
2019-04-22T14:22:54.657Z,17.20
2019-04-22T14:25:22.814Z,17.80
2019-04-22T14:27:58.332Z,17.50
2019-04-22T14:30:20.771Z,17.20
2019-04-22T14:32:47.741Z,17.70
2019-04-22T14:35:15.513Z,17.80
2019-04-22T14:37:42.455Z,17.80
2019-04-22T14:40:11.828Z,18.30
2019-04-22T14:42:58.927Z,18.40
2019-04-22T14:45:44.589Z,18.60
2019-04-22T14:48:02.808Z,18.90
2019-04-22T14:50:32.550Z,18.10
2019-04-22T14:52:58.285Z,17.90
2019-04-22T14:55:13.833Z,18.40
2019-04-22T14:57:36.282Z,18.70
2019-04-22T15:00:06.190Z,18.80
2019-04-22T15:02:33.867Z,19.10
2019-04-22T15:05:00.604Z,18.50
2019-04-22T15:07:26.888Z,18.40
2019-04-22T15:09:55.573Z,18.50
2019-04-22T15:12:36.466Z,18.30
2019-04-22T15:14:59.563Z,18.80
2019-04-22T15:17:33.762Z,19.60
2019-04-22T15:20:08.004Z,19.40
2019-04-22T15:22:34.671Z,19.20
2019-04-22T15:25:00.916Z,18.90
2019-04-22T15:27:30.932Z,18.90
2019-04-22T15:29:57.082Z,19.50
2019-04-22T15:32:25.190Z,19.40
2019-04-22T15:34:53.329Z,19.40
2019-04-22T15:37:20.457Z,19.50
2019-04-22T15:39:47.894Z,20.00
2019-04-22T15:42:20.792Z,19.60
2019-04-22T15:44:44.077Z,19.70
2019-04-22T15:47:11.147Z,20.20
2019-04-22T15:49:38.154Z,19.70
2019-04-22T15:52:07.817Z,19.70
2019-04-22T15:54:34.228Z,20.10
2019-04-22T15:57:00.433Z,20.00
2019-04-22T15:59:47.675Z,19.90
2019-04-22T16:02:00.118Z,20.00
2019-04-22T16:04:24.131Z,20.50
2019-04-22T16:06:52.763Z,20.60
2019-04-22T16:09:20.472Z,20.70
2019-04-22T16:11:47.725Z,20.50
2019-04-22T16:14:15.066Z,20.80
2019-04-22T16:16:43.050Z,21.30
2019-04-22T16:19:09.500Z,21.40
2019-04-22T16:21:42.394Z,21.60
2019-04-22T16:24:24.306Z,21.60
2019-04-22T16:26:53.864Z,21.20
2019-04-22T16:29:21.244Z,21.00
2019-04-22T16:31:49.469Z,21.20
2019-04-22T16:34:17.274Z,21.50
2019-04-22T16:36:44.865Z,21.60
2019-04-22T16:39:13.287Z,21.20
2019-04-22T16:41:40.748Z,21.30
2019-04-22T16:44:08.933Z,21.30
2019-04-22T16:46:35.235Z,21.00
2019-04-22T16:49:05.657Z,20.20
2019-04-22T16:51:33.829Z,20.10
2019-04-22T16:54:00.241Z,19.90
2019-04-22T16:56:26.836Z,20.00
2019-04-22T16:58:53.068Z,19.90
2019-04-22T17:01:22.548Z,19.90
2019-04-22T17:04:00.631Z,19.80
2019-04-22T17:06:29.937Z,20.00
2019-04-22T17:08:57.180Z,19.80
2019-04-22T17:11:25.582Z,19.70
2019-04-22T17:13:53.170Z,19.80
2019-04-22T17:16:20.704Z,20.00
2019-04-22T17:18:50.188Z,19.90
2019-04-22T17:21:17.578Z,20.50
2019-04-22T17:23:45.573Z,20.60
2019-04-22T17:26:12.583Z,20.50
2019-04-22T17:28:45.855Z,21.00
2019-04-22T17:31:12.993Z,21.10
2019-04-22T17:33:41.059Z,21.50
2019-04-22T17:36:09.337Z,22.20
2019-04-22T17:38:48.591Z,23.10
2019-04-22T17:41:20.256Z,23.40
2019-04-22T17:43:59.125Z,24.20
2019-04-22T17:46:32.320Z,24.50
2019-04-22T17:49:25.582Z,25.20
2019-04-22T17:52:17.151Z,26.00
2019-04-22T17:54:42.093Z,26.70
2019-04-22T17:57:09.903Z,27.10
2019-04-22T17:59:40.118Z,27.30
2019-04-22T18:02:02.207Z,27.60
2019-04-22T18:04:16.617Z,28.10
2019-04-22T18:07:15.386Z,28.10
2019-04-22T18:09:53.651Z,28.60
2019-04-22T18:12:09.430Z,28.50
2019-04-22T18:14:41.703Z,28.70
2019-04-22T18:17:02.327Z,28.70
2019-04-22T18:19:27.760Z,28.70
2019-04-22T18:21:50.474Z,29.30
2019-04-22T18:24:11.512Z,29.80
2019-04-22T18:26:55.552Z,30.20
2019-04-22T18:29:22.310Z,30.40
2019-04-22T18:31:39.594Z,30.30
2019-04-22T18:34:09.825Z,30.30
2019-04-22T18:36:42.872Z,30.60
2019-04-22T18:41:42.912Z,31.00
2019-04-22T18:44:19.936Z,31.30
2019-04-22T18:46:36.538Z,31.80
2019-04-22T18:49:08.432Z,32.00
2019-04-22T18:51:51.616Z,32.00
2019-04-22T18:54:28.846Z,32.30
2019-04-22T18:56:50.872Z,33.10
2019-04-22T18:59:12.410Z,32.70
2019-04-22T19:01:33.577Z,33.10
2019-04-22T19:04:09.025Z,32.70
2019-04-22T19:06:50.447Z,32.80
2019-04-22T19:09:22.417Z,33.20
2019-04-22T19:12:01.825Z,33.10
2019-04-22T19:14:19.104Z,32.80
2019-04-22T19:17:07.979Z,32.90
2019-04-22T19:19:29.781Z,32.90
2019-04-22T19:21:43.323Z,33.10
2019-04-22T19:24:04.579Z,32.90
2019-04-22T19:26:57.744Z,33.20
2019-04-22T19:29:05.611Z,33.80
2019-04-22T19:31:32.924Z,33.10
2019-04-22T19:34:03.315Z,33.50
2019-04-22T19:36:32.199Z,33.60
2019-04-22T19:38:54.754Z,33.80
2019-04-22T19:41:29.468Z,33.40
2019-04-22T19:43:58.925Z,33.70
2019-04-22T19:46:19.391Z,33.60
2019-04-22T19:51:24.221Z,33.70
2019-04-22T19:53:47.105Z,34.00
2019-04-22T19:56:09.691Z,34.10
2019-04-22T19:58:37.407Z,34.10
2019-04-22T20:01:25.620Z,34.20
2019-04-22T20:04:06.363Z,34.10
2019-04-22T20:06:27.169Z,34.10
2019-04-22T20:08:59.246Z,34.20
2019-04-22T20:11:29.403Z,34.20
2019-04-22T20:13:55.783Z,34.40
2019-04-22T20:16:20.723Z,34.30
2019-04-22T20:18:52.303Z,34.40
2019-04-22T20:21:22.399Z,34.40
2019-04-22T20:23:40.726Z,34.70
2019-04-22T20:26:07.292Z,34.90
2019-04-22T20:28:49.280Z,34.90
2019-04-22T20:31:14.437Z,35.00
2019-04-22T20:33:44.402Z,35.30
2019-04-22T20:36:12.587Z,35.40
2019-04-22T20:38:38.542Z,35.60
2019-04-22T20:41:02.700Z,35.70
2019-04-22T20:43:44.884Z,36.50
2019-04-22T20:46:05.899Z,36.10
2019-04-22T20:48:37.585Z,36.40
2019-04-22T20:50:58.149Z,36.70
2019-04-22T20:53:37.948Z,37.00
2019-04-22T20:55:59.679Z,37.70
2019-04-22T20:58:28.285Z,37.70
2019-04-22T21:00:46.066Z,38.00
2019-04-22T21:03:16.018Z,38.30
2019-04-22T21:05:44.487Z,38.10
2019-04-22T21:08:25.833Z,38.50
2019-04-22T21:10:44.841Z,38.50
2019-04-22T21:13:11.566Z,38.40
2019-04-22T21:15:51.761Z,38.50
2019-04-22T21:18:09.638Z,38.50
2019-04-22T21:20:43.108Z,38.80
2019-04-22T21:23:10.653Z,38.80
2019-04-22T21:25:30.750Z,39.00
2019-04-22T21:28:09.976Z,39.10
2019-04-22T21:30:32.598Z,39.20
2019-04-22T21:33:10.582Z,39.20
2019-04-22T21:38:19.632Z,39.40
2019-04-22T21:40:39.784Z,39.60
2019-04-22T21:43:16.299Z,39.60
2019-04-22T21:45:31.107Z,39.70
2019-04-22T21:53:07.311Z,40.00
2019-04-22T21:55:37.881Z,39.90
2019-04-22T21:58:08.003Z,40.10
2019-04-22T22:00:44.648Z,40.70
2019-04-22T22:03:08.630Z,41.10
2019-04-22T22:05:28.762Z,40.90
2019-04-22T22:07:51.321Z,41.60
2019-04-22T22:10:34.482Z,41.70
2019-04-22T22:13:00.774Z,41.50
2019-04-22T22:15:28.643Z,41.20
2019-04-22T22:18:16.441Z,41.40
2019-04-22T22:20:59.838Z,41.40
2019-04-22T22:23:21.948Z,41.20
2019-04-22T22:25:40.045Z,41.00
2019-04-22T22:28:21.925Z,41.10
2019-04-22T22:30:51.283Z,41.00
2019-04-22T22:33:05.889Z,42.10
2019-04-22T22:35:36.105Z,41.80
2019-04-22T22:38:05.268Z,41.50
2019-04-22T22:40:18.223Z,41.60
2019-04-22T22:42:45.915Z,42.40
2019-04-22T22:45:19.860Z,41.70
2019-04-22T22:48:03.859Z,42.60
2019-04-22T22:50:28.492Z,41.90
2019-04-22T22:53:11.223Z,42.50
2019-04-22T22:55:31.296Z,42.10
2019-04-22T22:57:58.397Z,42.40
2019-04-22T23:00:27.091Z,42.20
2019-04-22T23:03:27.547Z,42.10
2019-04-22T23:05:35.909Z,41.70
2019-04-22T23:08:17.045Z,41.50
2019-04-22T23:10:25.299Z,41.20
2019-04-22T23:13:00.423Z,41.30
2019-04-22T23:15:24.998Z,41.50
2019-04-22T23:17:36.969Z,41.60
2019-04-22T23:20:04.915Z,41.90
2019-04-22T23:22:48.713Z,42.20
2019-04-22T23:25:23.490Z,42.40
2019-04-22T23:27:52.571Z,42.50
2019-04-22T23:30:32.330Z,42.80
2019-04-22T23:33:09.889Z,43.00
2019-04-22T23:35:50.517Z,43.10
2019-04-22T23:38:20.744Z,43.20
2019-04-22T23:40:47.876Z,43.10
2019-04-22T23:43:30.671Z,43.20
2019-04-22T23:45:50.410Z,43.30
2019-04-22T23:48:13.059Z,43.40
2019-04-22T23:50:49.509Z,43.60
2019-04-22T23:53:31.589Z,43.80
2019-04-22T23:55:50.663Z,44.10
2019-04-22T23:58:19.066Z,44.20
